sensor_id;sensor_type;location;lat;lon;timestamp;pressure;altitude;pressure_sealevel;temperature;humidity
9764;BME280;4921;43.214;27.936;2023-05-02T00:00:55;101630.97;;;13.66;52.21
9764;BME280;4921;43.214;27.936;2023-05-02T00:03:25;101630.09;;;13.54;52.87
9764;BME280;4921;43.214;27.936;2023-05-02T00:05:52;101626.13;;;13.49;52.28
9764;BME280;4921;43.214;27.936;2023-05-02T00:08:19;101628.88;;;13.47;51.66
9764;BME280;4921;43.214;27.936;2023-05-02T00:10:45;101632.34;;;13.48;51.46
9764;BME280;4921;43.214;27.936;2023-05-02T00:13:12;101629.50;;;13.51;51.58
9764;BME280;4921;43.214;27.936;2023-05-02T00:15:39;101632.47;;;13.46;51.50
9764;BME280;4921;43.214;27.936;2023-05-02T00:18:06;101643.75;;;13.48;51.49
9764;BME280;4921;43.214;27.936;2023-05-02T00:20:34;101647.03;;;13.52;51.46
9764;BME280;4921;43.214;27.936;2023-05-02T00:23:01;101644.63;;;13.49;51.81
9764;BME280;4921;43.214;27.936;2023-05-02T00:25:28;101645.72;;;13.57;52.59
9764;BME280;4921;43.214;27.936;2023-05-02T00:27:55;101646.56;;;13.58;52.28
9764;BME280;4921;43.214;27.936;2023-05-02T00:30:22;101650.31;;;13.66;52.22
9764;BME280;4921;43.214;27.936;2023-05-02T00:32:49;101650.44;;;13.65;52.49
9764;BME280;4921;43.214;27.936;2023-05-02T00:35:18;101649.69;;;13.63;52.54
9764;BME280;4921;43.214;27.936;2023-05-02T00:37:46;101651.00;;;13.57;53.27
9764;BME280;4921;43.214;27.936;2023-05-02T00:40:14;101639.66;;;13.44;53.89
9764;BME280;4921;43.214;27.936;2023-05-02T00:42:40;101647.84;;;13.52;53.95
9764;BME280;4921;43.214;27.936;2023-05-02T00:45:08;101649.44;;;13.55;54.41
9764;BME280;4921;43.214;27.936;2023-05-02T00:47:35;101650.97;;;13.46;55.17
9764;BME280;4921;43.214;27.936;2023-05-02T00:50:02;101650.59;;;13.40;55.73
9764;BME280;4921;43.214;27.936;2023-05-02T00:52:30;101662.00;;;13.40;56.18
9764;BME280;4921;43.214;27.936;2023-05-02T00:54:58;101647.47;;;13.46;56.25
9764;BME280;4921;43.214;27.936;2023-05-02T00:57:27;101648.78;;;13.40;56.53
9764;BME280;4921;43.214;27.936;2023-05-02T00:59:54;101648.44;;;13.45;56.49
9764;BME280;4921;43.214;27.936;2023-05-02T01:02:33;101650.84;;;13.48;56.15
9764;BME280;4921;43.214;27.936;2023-05-02T01:05:10;101646.72;;;13.33;56.65
9764;BME280;4921;43.214;27.936;2023-05-02T01:07:57;101644.91;;;13.33;55.93
9764;BME280;4921;43.214;27.936;2023-05-02T01:10:37;101646.72;;;13.33;55.18
9764;BME280;4921;43.214;27.936;2023-05-02T01:13:09;101646.38;;;13.37;55.23
9764;BME280;4921;43.214;27.936;2023-05-02T01:15:40;101643.50;;;13.40;55.43
9764;BME280;4921;43.214;27.936;2023-05-02T01:18:08;101627.34;;;13.21;54.68
9764;BME280;4921;43.214;27.936;2023-05-02T01:20:39;101641.28;;;13.23;54.55
9764;BME280;4921;43.214;27.936;2023-05-02T01:23:15;101634.59;;;13.30;53.71
9764;BME280;4921;43.214;27.936;2023-05-02T01:25:55;101650.72;;;13.38;53.17
9764;BME280;4921;43.214;27.936;2023-05-02T01:31:08;101646.50;;;13.36;53.51
9764;BME280;4921;43.214;27.936;2023-05-02T01:33:37;101638.00;;;13.43;53.12
9764;BME280;4921;43.214;27.936;2023-05-02T01:36:06;101642.78;;;13.38;52.80
9764;BME280;4921;43.214;27.936;2023-05-02T01:38:35;101641.81;;;13.39;52.83
9764;BME280;4921;43.214;27.936;2023-05-02T01:41:03;101629.22;;;13.43;52.47
9764;BME280;4921;43.214;27.936;2023-05-02T01:43:32;101628.59;;;13.39;52.23
9764;BME280;4921;43.214;27.936;2023-05-02T01:46:02;101628.72;;;13.38;51.90
9764;BME280;4921;43.214;27.936;2023-05-02T01:48:32;101635.38;;;13.43;51.95
9764;BME280;4921;43.214;27.936;2023-05-02T01:51:00;101639.06;;;13.41;51.88
9764;BME280;4921;43.214;27.936;2023-05-02T01:53:30;101632.09;;;13.40;51.11
9764;BME280;4921;43.214;27.936;2023-05-02T01:56:00;101628.34;;;13.31;50.73
9764;BME280;4921;43.214;27.936;2023-05-02T01:58:29;101628.06;;;13.23;51.28
9764;BME280;4921;43.214;27.936;2023-05-02T02:00:59;101632.69;;;13.32;52.08
9764;BME280;4921;43.214;27.936;2023-05-02T02:03:27;101635.47;;;13.42;52.97
9764;BME280;4921;43.214;27.936;2023-05-02T02:05:58;101640.22;;;13.26;53.44
9764;BME280;4921;43.214;27.936;2023-05-02T02:08:27;101638.97;;;13.19;54.19
9764;BME280;4921;43.214;27.936;2023-05-02T02:10:59;101635.94;;;13.12;55.01
9764;BME280;4921;43.214;27.936;2023-05-02T02:13:33;101637.13;;;13.08;55.40
9764;BME280;4921;43.214;27.936;2023-05-02T02:16:03;101637.66;;;13.13;55.29
9764;BME280;4921;43.214;27.936;2023-05-02T02:18:35;101636.84;;;13.24;55.41
9764;BME280;4921;43.214;27.936;2023-05-02T02:21:06;101638.84;;;13.20;55.03
9764;BME280;4921;43.214;27.936;2023-05-02T02:23:36;101637.66;;;13.24;54.45
9764;BME280;4921;43.214;27.936;2023-05-02T02:26:05;101639.84;;;13.19;54.63
9764;BME280;4921;43.214;27.936;2023-05-02T02:28:34;101646.69;;;13.22;54.12
9764;BME280;4921;43.214;27.936;2023-05-02T02:31:01;101646.72;;;13.09;53.87
9764;BME280;4921;43.214;27.936;2023-05-02T02:33:29;101650.63;;;13.03;53.41
9764;BME280;4921;43.214;27.936;2023-05-02T02:36:01;101648.22;;;13.00;53.29
9764;BME280;4921;43.214;27.936;2023-05-02T02:38:37;101651.50;;;13.04;53.33
9764;BME280;4921;43.214;27.936;2023-05-02T02:41:12;101653.41;;;13.02;53.24
9764;BME280;4921;43.214;27.936;2023-05-02T02:43:45;101656.38;;;12.97;52.80
9764;BME280;4921;43.214;27.936;2023-05-02T02:46:19;101648.94;;;13.02;52.50
9764;BME280;4921;43.214;27.936;2023-05-02T02:48:56;101650.00;;;13.13;52.48
9764;BME280;4921;43.214;27.936;2023-05-02T02:51:34;101651.09;;;12.97;52.77
9764;BME280;4921;43.214;27.936;2023-05-02T02:54:09;101659.75;;;12.99;52.75
9764;BME280;4921;43.214;27.936;2023-05-02T02:56:41;101655.66;;;12.95;52.64
9764;BME280;4921;43.214;27.936;2023-05-02T02:59:14;101657.09;;;12.99;52.16
9764;BME280;4921;43.214;27.936;2023-05-02T03:01:47;101664.78;;;13.02;51.83
9764;BME280;4921;43.214;27.936;2023-05-02T03:04:20;101669.06;;;12.92;51.48
9764;BME280;4921;43.214;27.936;2023-05-02T03:06:49;101670.63;;;12.95;51.25
9764;BME280;4921;43.214;27.936;2023-05-02T03:09:17;101671.59;;;13.07;51.92
9764;BME280;4921;43.214;27.936;2023-05-02T03:11:44;101673.81;;;13.00;52.06
9764;BME280;4921;43.214;27.936;2023-05-02T03:14:11;101675.25;;;12.80;52.44
9764;BME280;4921;43.214;27.936;2023-05-02T03:16:39;101684.66;;;12.72;53.02
9764;BME280;4921;43.214;27.936;2023-05-02T03:19:06;101676.09;;;12.81;52.62
9764;BME280;4921;43.214;27.936;2023-05-02T03:21:33;101671.28;;;12.86;51.81
9764;BME280;4921;43.214;27.936;2023-05-02T03:24:02;101684.00;;;12.81;52.50
9764;BME280;4921;43.214;27.936;2023-05-02T03:26:30;101690.34;;;12.78;53.55
9764;BME280;4921;43.214;27.936;2023-05-02T03:28:57;101696.28;;;12.69;54.33
9764;BME280;4921;43.214;27.936;2023-05-02T03:31:24;101684.50;;;12.50;55.24
9764;BME280;4921;43.214;27.936;2023-05-02T03:33:51;101692.59;;;12.47;54.76
9764;BME280;4921;43.214;27.936;2023-05-02T03:36:18;101703.38;;;12.44;55.49
9764;BME280;4921;43.214;27.936;2023-05-02T03:38:45;101700.84;;;12.42;56.03
9764;BME280;4921;43.214;27.936;2023-05-02T03:41:12;101705.59;;;12.50;56.09
9764;BME280;4921;43.214;27.936;2023-05-02T03:43:40;101706.22;;;12.53;56.22
9764;BME280;4921;43.214;27.936;2023-05-02T03:46:08;101712.94;;;12.57;56.32
9764;BME280;4921;43.214;27.936;2023-05-02T03:48:36;101712.31;;;12.66;56.41
9764;BME280;4921;43.214;27.936;2023-05-02T03:51:04;101713.28;;;12.65;56.60
9764;BME280;4921;43.214;27.936;2023-05-02T03:53:32;101717.28;;;12.58;57.08
9764;BME280;4921;43.214;27.936;2023-05-02T03:55:59;101722.13;;;12.64;57.29
9764;BME280;4921;43.214;27.936;2023-05-02T03:58:26;101721.19;;;12.65;57.68
9764;BME280;4921;43.214;27.936;2023-05-02T04:00:54;101725.19;;;12.71;57.32
9764;BME280;4921;43.214;27.936;2023-05-02T04:03:21;101728.03;;;12.80;57.53
9764;BME280;4921;43.214;27.936;2023-05-02T04:05:48;101732.34;;;12.81;56.72
9764;BME280;4921;43.214;27.936;2023-05-02T04:08:16;101733.31;;;12.80;57.31
9764;BME280;4921;43.214;27.936;2023-05-02T04:10:43;101731.28;;;12.84;58.31
9764;BME280;4921;43.214;27.936;2023-05-02T04:13:10;101736.03;;;12.91;58.54
9764;BME280;4921;43.214;27.936;2023-05-02T04:15:37;101739.91;;;12.98;59.13
9764;BME280;4921;43.214;27.936;2023-05-02T04:18:05;101735.59;;;13.10;58.43
9764;BME280;4921;43.214;27.936;2023-05-02T04:20:32;101735.78;;;13.20;57.77
9764;BME280;4921;43.214;27.936;2023-05-02T04:22:59;101733.41;;;13.28;57.89
9764;BME280;4921;43.214;27.936;2023-05-02T04:25:26;101730.91;;;13.37;57.58
9764;BME280;4921;43.214;27.936;2023-05-02T04:27:53;101725.94;;;13.45;56.27
9764;BME280;4921;43.214;27.936;2023-05-02T04:30:20;101727.66;;;13.57;54.42
9764;BME280;4921;43.214;27.936;2023-05-02T04:32:47;101723.16;;;13.70;52.81
9764;BME280;4921;43.214;27.936;2023-05-02T04:35:16;101724.47;;;13.76;52.24
9764;BME280;4921;43.214;27.936;2023-05-02T04:37:43;101729.81;;;13.87;51.76
9764;BME280;4921;43.214;27.936;2023-05-02T04:40:11;101720.09;;;13.99;51.33
9764;BME280;4921;43.214;27.936;2023-05-02T04:42:38;101726.50;;;14.07;51.35
9764;BME280;4921;43.214;27.936;2023-05-02T04:45:07;101724.94;;;14.16;50.77
9764;BME280;4921;43.214;27.936;2023-05-02T04:47:34;101724.13;;;14.26;50.51
9764;BME280;4921;43.214;27.936;2023-05-02T04:50:01;101726.59;;;14.40;50.50
9764;BME280;4921;43.214;27.936;2023-05-02T04:52:29;101728.25;;;14.52;49.88
9764;BME280;4921;43.214;27.936;2023-05-02T04:54:56;101728.00;;;14.67;49.31
9764;BME280;4921;43.214;27.936;2023-05-02T04:57:23;101723.69;;;14.77;49.01
9764;BME280;4921;43.214;27.936;2023-05-02T04:59:50;101734.50;;;14.85;48.78
9764;BME280;4921;43.214;27.936;2023-05-02T05:02:17;101740.75;;;14.95;48.68
9764;BME280;4921;43.214;27.936;2023-05-02T05:04:44;101739.16;;;15.03;48.48
9764;BME280;4921;43.214;27.936;2023-05-02T05:07:11;101744.22;;;15.17;48.24
9764;BME280;4921;43.214;27.936;2023-05-02T05:09:39;101743.47;;;15.26;48.04
9764;BME280;4921;43.214;27.936;2023-05-02T05:12:06;101744.53;;;15.35;47.79
9764;BME280;4921;43.214;27.936;2023-05-02T05:14:33;101742.69;;;15.47;47.58
9764;BME280;4921;43.214;27.936;2023-05-02T05:17:00;101741.00;;;15.57;47.20
9764;BME280;4921;43.214;27.936;2023-05-02T05:19:27;101745.41;;;15.67;47.12
9764;BME280;4921;43.214;27.936;2023-05-02T05:21:54;101748.13;;;15.77;47.00
9764;BME280;4921;43.214;27.936;2023-05-02T05:24:21;101751.72;;;15.87;46.97
9764;BME280;4921;43.214;27.936;2023-05-02T05:26:49;101756.50;;;15.93;46.71
9764;BME280;4921;43.214;27.936;2023-05-02T05:29:16;101762.00;;;16.01;46.69
9764;BME280;4921;43.214;27.936;2023-05-02T05:31:44;101765.56;;;16.11;46.60
9764;BME280;4921;43.214;27.936;2023-05-02T05:34:12;101762.72;;;16.24;46.35
9764;BME280;4921;43.214;27.936;2023-05-02T05:36:39;101764.56;;;16.33;46.10
9764;BME280;4921;43.214;27.936;2023-05-02T05:39:06;101769.56;;;16.47;45.71
9764;BME280;4921;43.214;27.936;2023-05-02T05:41:33;101769.63;;;16.56;45.61
9764;BME280;4921;43.214;27.936;2023-05-02T05:44:01;101766.03;;;16.67;45.67
9764;BME280;4921;43.214;27.936;2023-05-02T05:46:28;101767.97;;;16.65;49.74
9764;BME280;4921;43.214;27.936;2023-05-02T05:48:55;101765.00;;;16.79;50.33
9764;BME280;4921;43.214;27.936;2023-05-02T05:51:22;101772.31;;;16.96;50.23
9764;BME280;4921;43.214;27.936;2023-05-02T05:53:49;101769.97;;;17.12;49.89
9764;BME280;4921;43.214;27.936;2023-05-02T05:56:16;101775.47;;;17.30;49.79
9764;BME280;4921;43.214;27.936;2023-05-02T05:58:43;101765.84;;;17.38;50.69
9764;BME280;4921;43.214;27.936;2023-05-02T06:01:11;101778.03;;;17.41;49.77
9764;BME280;4921;43.214;27.936;2023-05-02T06:03:38;101772.03;;;17.48;49.82
9764;BME280;4921;43.214;27.936;2023-05-02T06:06:05;101777.59;;;17.26;47.66
9764;BME280;4921;43.214;27.936;2023-05-02T06:08:32;101783.34;;;17.31;48.45
9764;BME280;4921;43.214;27.936;2023-05-02T06:10:59;101781.66;;;17.21;47.57
9764;BME280;4921;43.214;27.936;2023-05-02T06:13:26;101780.06;;;17.09;50.54
9764;BME280;4921;43.214;27.936;2023-05-02T06:15:53;101783.75;;;17.27;50.60
9764;BME280;4921;43.214;27.936;2023-05-02T06:18:22;101785.84;;;17.33;50.88
9764;BME280;4921;43.214;27.936;2023-05-02T06:20:48;101778.63;;;17.54;50.69
9764;BME280;4921;43.214;27.936;2023-05-02T06:23:15;101786.75;;;17.62;50.10
9764;BME280;4921;43.214;27.936;2023-05-02T06:25:43;101782.16;;;17.74;51.70
9764;BME280;4921;43.214;27.936;2023-05-02T06:28:09;101785.94;;;17.71;51.60
9764;BME280;4921;43.214;27.936;2023-05-02T06:30:36;101787.34;;;17.66;52.84
9764;BME280;4921;43.214;27.936;2023-05-02T06:33:03;101794.75;;;17.72;53.34
9764;BME280;4921;43.214;27.936;2023-05-02T06:35:32;101797.13;;;17.56;53.36
9764;BME280;4921;43.214;27.936;2023-05-02T06:37:59;101800.59;;;17.46;53.36
9764;BME280;4921;43.214;27.936;2023-05-02T06:40:26;101797.81;;;17.58;53.42
9764;BME280;4921;43.214;27.936;2023-05-02T06:42:53;101800.38;;;17.78;54.08
9764;BME280;4921;43.214;27.936;2023-05-02T06:45:20;101804.28;;;17.93;53.48
9764;BME280;4921;43.214;27.936;2023-05-02T06:47:47;101805.44;;;17.81;53.46
9764;BME280;4921;43.214;27.936;2023-05-02T06:50:14;101813.81;;;17.67;55.61
9764;BME280;4921;43.214;27.936;2023-05-02T06:52:43;101811.00;;;17.78;55.48
9764;BME280;4921;43.214;27.936;2023-05-02T06:55:10;101817.06;;;17.90;55.65
9764;BME280;4921;43.214;27.936;2023-05-02T06:57:37;101814.91;;;17.84;55.43
9764;BME280;4921;43.214;27.936;2023-05-02T07:00:05;101820.94;;;17.67;56.06
9764;BME280;4921;43.214;27.936;2023-05-02T07:02:32;101822.53;;;17.29;56.84
9764;BME280;4921;43.214;27.936;2023-05-02T07:04:59;101828.13;;;16.96;59.04
9764;BME280;4921;43.214;27.936;2023-05-02T07:07:26;101831.75;;;16.65;61.35
9764;BME280;4921;43.214;27.936;2023-05-02T07:09:54;101834.16;;;16.68;62.96
9764;BME280;4921;43.214;27.936;2023-05-02T07:12:21;101836.41;;;17.03;63.17
9764;BME280;4921;43.214;27.936;2023-05-02T07:14:50;101827.28;;;16.96;63.64
9764;BME280;4921;43.214;27.936;2023-05-02T07:17:17;101835.41;;;16.94;63.46
9764;BME280;4921;43.214;27.936;2023-05-02T07:19:44;101838.09;;;17.04;63.09
9764;BME280;4921;43.214;27.936;2023-05-02T07:22:11;101834.88;;;17.00;63.67
9764;BME280;4921;43.214;27.936;2023-05-02T07:24:39;101835.63;;;17.12;61.73
9764;BME280;4921;43.214;27.936;2023-05-02T07:27:09;101843.06;;;17.27;56.29
9764;BME280;4921;43.214;27.936;2023-05-02T07:29:37;101838.97;;;17.14;44.17
9764;BME280;4921;43.214;27.936;2023-05-02T07:32:04;101847.03;;;17.33;46.20
9764;BME280;4921;43.214;27.936;2023-05-02T07:34:31;101848.03;;;17.41;46.38
9764;BME280;4921;43.214;27.936;2023-05-02T07:36:58;101847.94;;;17.52;47.39
9764;BME280;4921;43.214;27.936;2023-05-02T07:39:25;101859.84;;;17.58;42.30
9764;BME280;4921;43.214;27.936;2023-05-02T07:41:52;101856.56;;;17.45;41.09
9764;BME280;4921;43.214;27.936;2023-05-02T07:44:20;101847.13;;;17.62;38.44
9764;BME280;4921;43.214;27.936;2023-05-02T07:46:47;101854.72;;;17.66;37.38
9764;BME280;4921;43.214;27.936;2023-05-02T07:49:15;101856.09;;;17.70;38.84
9764;BME280;4921;43.214;27.936;2023-05-02T07:51:41;101851.06;;;17.86;37.33
9764;BME280;4921;43.214;27.936;2023-05-02T07:54:16;101856.41;;;18.05;40.54
9764;BME280;4921;43.214;27.936;2023-05-02T07:56:44;101852.78;;;17.87;39.50
9764;BME280;4921;43.214;27.936;2023-05-02T07:59:11;101863.13;;;17.90;37.85
9764;BME280;4921;43.214;27.936;2023-05-02T08:01:40;101861.59;;;17.97;36.58
9764;BME280;4921;43.214;27.936;2023-05-02T08:04:07;101858.34;;;17.75;35.83
9764;BME280;4921;43.214;27.936;2023-05-02T08:06:35;101857.47;;;17.65;35.69
9764;BME280;4921;43.214;27.936;2023-05-02T08:09:02;101857.81;;;17.81;35.43
9764;BME280;4921;43.214;27.936;2023-05-02T08:11:29;101845.06;;;18.03;37.55
9764;BME280;4921;43.214;27.936;2023-05-02T08:13:56;101853.31;;;17.81;35.11
9764;BME280;4921;43.214;27.936;2023-05-02T08:16:24;101851.75;;;17.69;35.58
9764;BME280;4921;43.214;27.936;2023-05-02T08:18:52;101845.50;;;17.40;36.72
9764;BME280;4921;43.214;27.936;2023-05-02T08:21:19;101858.78;;;17.70;37.27
9764;BME280;4921;43.214;27.936;2023-05-02T08:23:46;101856.53;;;17.94;38.10
9764;BME280;4921;43.214;27.936;2023-05-02T08:26:13;101865.81;;;18.19;37.24
9764;BME280;4921;43.214;27.936;2023-05-02T08:28:40;101855.56;;;17.95;34.70
9764;BME280;4921;43.214;27.936;2023-05-02T08:31:07;101866.22;;;17.95;36.44
9764;BME280;4921;43.214;27.936;2023-05-02T08:33:34;101862.13;;;17.72;37.84
9764;BME280;4921;43.214;27.936;2023-05-02T08:36:11;101863.53;;;17.86;34.96
9764;BME280;4921;43.214;27.936;2023-05-02T08:38:38;101856.28;;;17.97;35.88
9764;BME280;4921;43.214;27.936;2023-05-02T08:41:09;101854.16;;;18.01;39.92
9764;BME280;4921;43.214;27.936;2023-05-02T08:43:37;101857.91;;;17.70;40.61
9764;BME280;4921;43.214;27.936;2023-05-02T08:46:06;101852.88;;;17.86;38.15
9764;BME280;4921;43.214;27.936;2023-05-02T08:48:35;101867.03;;;17.77;37.93
9764;BME280;4921;43.214;27.936;2023-05-02T08:51:03;101863.25;;;17.79;41.01
9764;BME280;4921;43.214;27.936;2023-05-02T08:53:34;101855.56;;;17.95;41.19
9764;BME280;4921;43.214;27.936;2023-05-02T08:56:01;101863.56;;;18.14;41.94
9764;BME280;4921;43.214;27.936;2023-05-02T08:58:29;101859.34;;;18.21;42.53
9764;BME280;4921;43.214;27.936;2023-05-02T09:00:59;101847.59;;;18.14;43.00
9764;BME280;4921;43.214;27.936;2023-05-02T09:03:28;101862.84;;;18.32;40.90
9764;BME280;4921;43.214;27.936;2023-05-02T09:06:03;101866.06;;;18.16;42.47
9764;BME280;4921;43.214;27.936;2023-05-02T09:08:32;101864.84;;;18.20;42.59
9764;BME280;4921;43.214;27.936;2023-05-02T09:11:00;101871.97;;;18.19;43.86
9764;BME280;4921;43.214;27.936;2023-05-02T09:13:33;101873.94;;;18.17;43.74
9764;BME280;4921;43.214;27.936;2023-05-02T09:16:02;101865.25;;;18.35;44.16
9764;BME280;4921;43.214;27.936;2023-05-02T09:18:31;101866.22;;;18.43;45.44
9764;BME280;4921;43.214;27.936;2023-05-02T09:20:59;101865.78;;;18.38;44.94
9764;BME280;4921;43.214;27.936;2023-05-02T09:23:35;101861.31;;;18.39;45.86
9764;BME280;4921;43.214;27.936;2023-05-02T09:26:10;101877.28;;;18.39;46.62
9764;BME280;4921;43.214;27.936;2023-05-02T09:28:38;101857.41;;;18.52;46.63
9764;BME280;4921;43.214;27.936;2023-05-02T09:31:07;101871.00;;;18.49;47.20
9764;BME280;4921;43.214;27.936;2023-05-02T09:33:35;101872.13;;;18.47;46.86
9764;BME280;4921;43.214;27.936;2023-05-02T09:36:02;101863.53;;;18.53;45.97
9764;BME280;4921;43.214;27.936;2023-05-02T09:38:29;101865.44;;;18.89;46.79
9764;BME280;4921;43.214;27.936;2023-05-02T09:40:58;101860.66;;;18.83;47.04
9764;BME280;4921;43.214;27.936;2023-05-02T09:43:28;101867.81;;;18.92;48.89
9764;BME280;4921;43.214;27.936;2023-05-02T09:45:59;101853.63;;;18.91;49.36
9764;BME280;4921;43.214;27.936;2023-05-02T09:48:27;101864.56;;;18.98;47.33
9764;BME280;4921;43.214;27.936;2023-05-02T09:50:54;101871.53;;;19.09;48.72
9764;BME280;4921;43.214;27.936;2023-05-02T09:53:23;101860.94;;;19.26;51.75
9764;BME280;4921;43.214;27.936;2023-05-02T09:56:03;101855.66;;;19.17;55.10
9764;BME280;4921;43.214;27.936;2023-05-02T09:58:30;101867.25;;;19.35;55.40
9764;BME280;4921;43.214;27.936;2023-05-02T10:00:57;101865.06;;;19.11;55.89
9764;BME280;4921;43.214;27.936;2023-05-02T10:03:26;101854.44;;;19.01;61.73
9764;BME280;4921;43.214;27.936;2023-05-02T10:05:54;101866.69;;;18.94;63.73
9764;BME280;4921;43.214;27.936;2023-05-02T10:08:23;101861.69;;;19.19;59.98
9764;BME280;4921;43.214;27.936;2023-05-02T10:10:53;101857.22;;;19.46;60.04
9764;BME280;4921;43.214;27.936;2023-05-02T10:13:24;101861.69;;;19.19;59.94
9764;BME280;4921;43.214;27.936;2023-05-02T10:15:58;101859.44;;;19.14;63.68
9764;BME280;4921;43.214;27.936;2023-05-02T10:18:27;101854.03;;;19.33;59.99
9764;BME280;4921;43.214;27.936;2023-05-02T10:20:57;101867.84;;;19.56;61.82
9764;BME280;4921;43.214;27.936;2023-05-02T10:23:28;101856.09;;;19.84;63.84
9764;BME280;4921;43.214;27.936;2023-05-02T10:25:57;101856.59;;;19.80;64.84
9764;BME280;4921;43.214;27.936;2023-05-02T10:28:26;101853.53;;;19.74;64.08
9764;BME280;4921;43.214;27.936;2023-05-02T10:30:54;101850.84;;;19.74;67.43
9764;BME280;4921;43.214;27.936;2023-05-02T10:33:22;101856.47;;;19.71;66.84
9764;BME280;4921;43.214;27.936;2023-05-02T10:35:49;101841.31;;;19.72;65.11
9764;BME280;4921;43.214;27.936;2023-05-02T10:38:18;101855.22;;;19.93;59.69
9764;BME280;4921;43.214;27.936;2023-05-02T10:40:52;101853.38;;;20.11;58.87
9764;BME280;4921;43.214;27.936;2023-05-02T10:43:24;101850.94;;;20.00;56.38
9764;BME280;4921;43.214;27.936;2023-05-02T10:45:53;101848.97;;;20.02;63.01
9764;BME280;4921;43.214;27.936;2023-05-02T10:48:22;101850.38;;;20.14;61.98
9764;BME280;4921;43.214;27.936;2023-05-02T10:50:51;101845.59;;;20.18;60.79
9764;BME280;4921;43.214;27.936;2023-05-02T10:53:22;101845.75;;;20.34;56.59
9764;BME280;4921;43.214;27.936;2023-05-02T10:56:08;101851.00;;;20.43;57.07
9764;BME280;4921;43.214;27.936;2023-05-02T10:58:36;101850.34;;;20.24;56.16
9764;BME280;4921;43.214;27.936;2023-05-02T11:01:33;101854.53;;;20.09;43.00
9764;BME280;4921;43.214;27.936;2023-05-02T11:04:04;101847.00;;;20.22;50.74
9764;BME280;4921;43.214;27.936;2023-05-02T11:06:33;101847.00;;;20.22;50.45
9764;BME280;4921;43.214;27.936;2023-05-02T11:09:31;101844.81;;;20.43;47.62
9764;BME280;4921;43.214;27.936;2023-05-02T11:11:59;101848.88;;;20.12;43.32
9764;BME280;4921;43.214;27.936;2023-05-02T11:14:51;101851.97;;;19.54;48.12
9764;BME280;4921;43.214;27.936;2023-05-02T11:17:20;101848.91;;;19.49;48.29
9764;BME280;4921;43.214;27.936;2023-05-02T11:22:54;101842.38;;;19.61;46.73
9764;BME280;4921;43.214;27.936;2023-05-02T11:25:38;101837.44;;;19.39;48.60
9764;BME280;4921;43.214;27.936;2023-05-02T11:28:07;101835.91;;;19.82;47.69
9764;BME280;4921;43.214;27.936;2023-05-02T11:30:54;101842.66;;;19.58;47.22
9764;BME280;4921;43.214;27.936;2023-05-02T11:33:22;101845.56;;;19.65;46.36
9764;BME280;4921;43.214;27.936;2023-05-02T11:35:49;101839.38;;;19.47;45.77
9764;BME280;4921;43.214;27.936;2023-05-02T11:38:18;101848.44;;;19.27;43.41
9764;BME280;4921;43.214;27.936;2023-05-02T11:40:54;101855.66;;;19.17;45.69
9764;BME280;4921;43.214;27.936;2023-05-02T11:43:22;101849.88;;;18.84;47.03
9764;BME280;4921;43.214;27.936;2023-05-02T11:45:49;101853.03;;;18.61;49.26
9764;BME280;4921;43.214;27.936;2023-05-02T11:48:18;101845.91;;;18.52;50.44
9764;BME280;4921;43.214;27.936;2023-05-02T11:50:47;101847.16;;;18.48;45.61
9764;BME280;4921;43.214;27.936;2023-05-02T11:53:16;101848.56;;;18.33;46.21
9764;BME280;4921;43.214;27.936;2023-05-02T11:55:45;101838.31;;;18.47;51.96
9764;BME280;4921;43.214;27.936;2023-05-02T11:58:13;101847.00;;;18.30;51.72
9764;BME280;4921;43.214;27.936;2023-05-02T12:00:41;101840.16;;;18.47;51.97
9764;BME280;4921;43.214;27.936;2023-05-02T12:03:26;101843.94;;;18.35;48.19
9764;BME280;4921;43.214;27.936;2023-05-02T12:05:55;101842.13;;;18.35;49.83
9764;BME280;4921;43.214;27.936;2023-05-02T12:08:24;101848.41;;;18.53;46.24
9764;BME280;4921;43.214;27.936;2023-05-02T12:10:53;101846.16;;;18.29;43.81
9764;BME280;4921;43.214;27.936;2023-05-02T12:13:21;101841.72;;;18.11;46.25
9764;BME280;4921;43.214;27.936;2023-05-02T12:15:49;101848.72;;;18.02;47.48
9764;BME280;4921;43.214;27.936;2023-05-02T12:18:18;101848.84;;;18.10;43.37
9764;BME280;4921;43.214;27.936;2023-05-02T12:20:48;101848.84;;;18.20;42.03
9764;BME280;4921;43.214;27.936;2023-05-02T12:23:18;101843.22;;;17.94;43.99
9764;BME280;4921;43.214;27.936;2023-05-02T12:25:46;101839.88;;;18.02;43.36
9764;BME280;4921;43.214;27.936;2023-05-02T12:28:15;101836.06;;;18.14;42.92
9764;BME280;4921;43.214;27.936;2023-05-02T12:30:46;101829.22;;;18.02;43.03
9764;BME280;4921;43.214;27.936;2023-05-02T12:33:13;101824.75;;;18.02;44.09
9764;BME280;4921;43.214;27.936;2023-05-02T12:35:41;101834.41;;;17.94;41.75
9764;BME280;4921;43.214;27.936;2023-05-02T12:38:10;101836.09;;;17.95;41.61
9764;BME280;4921;43.214;27.936;2023-05-02T12:40:46;101826.41;;;18.03;37.54
9764;BME280;4921;43.214;27.936;2023-05-02T12:43:14;101826.00;;;18.17;41.19
9764;BME280;4921;43.214;27.936;2023-05-02T12:45:41;101826.56;;;18.31;42.92
9764;BME280;4921;43.214;27.936;2023-05-02T12:48:19;101808.34;;;18.26;39.75
9764;BME280;4921;43.214;27.936;2023-05-02T12:50:46;101831.03;;;18.20;37.25
9764;BME280;4921;43.214;27.936;2023-05-02T12:53:13;101826.69;;;18.39;40.69
9764;BME280;4921;43.214;27.936;2023-05-02T12:55:42;101819.81;;;18.36;38.43
9764;BME280;4921;43.214;27.936;2023-05-02T12:58:10;101821.22;;;18.31;40.54
9764;BME280;4921;43.214;27.936;2023-05-02T13:00:39;101820.66;;;18.56;34.90
9764;BME280;4921;43.214;27.936;2023-05-02T13:03:07;101816.91;;;18.20;39.62
9764;BME280;4921;43.214;27.936;2023-05-02T13:05:34;101821.66;;;18.45;36.80
9764;BME280;4921;43.214;27.936;2023-05-02T13:08:02;101816.00;;;18.58;38.44
9764;BME280;4921;43.214;27.936;2023-05-02T13:10:29;101814.41;;;18.74;38.60
9764;BME280;4921;43.214;27.936;2023-05-02T13:12:57;101817.03;;;18.47;39.88
9764;BME280;4921;43.214;27.936;2023-05-02T13:15:24;101816.81;;;18.68;39.35